Time;durP1;ratioP1;P1;durP2;ratioP2;P2;SDS_P1;SDS_P2;PMS_P1;PMS_P2;Temp;Humidity;BMP_temperature;BMP_pressure;BME280_temperature;BME280_humidity;BME280_pressure;Samples;Min_cycle;Max_cycle;Signal;HPM_P1;HPM_P2
2023/05/10 00:00:08;;;;;;;6.30;2.80;;;;;;;12.57;61.43;100095.69;6098729;28;20043;-73
2023/05/10 00:03:04;;;;;;;7.55;2.78;;;;;;;12.45;62.14;100097.06;6098792;28;20044;-68
2023/05/10 00:06:00;;;;;;;7.28;3.75;;;;;;;12.50;62.14;100102.72;6097967;28;20044;-69
2023/05/10 00:08:55;;;;;;;7.00;3.00;;;;;;;12.52;62.17;100100.72;6099034;28;20033;-68
2023/05/10 00:11:50;;;;;;;8.43;2.90;;;;;;;12.41;62.30;100085.97;6098312;28;20327;-72
2023/05/10 00:14:45;;;;;;;5.83;3.37;;;;;;;12.50;62.78;100098.19;6098459;28;20017;-70
2023/05/10 00:17:41;;;;;;;7.63;3.50;;;;;;;12.40;63.14;100094.94;6098298;28;20332;-70
2023/05/10 00:20:36;;;;;;;6.10;3.60;;;;;;;12.45;62.91;100113.03;6098439;28;20025;-71
2023/05/10 00:23:31;;;;;;;5.93;3.50;;;;;;;12.37;63.36;100102.41;6098026;28;20507;-69
2023/05/10 00:26:27;;;;;;;6.38;3.63;;;;;;;12.26;63.57;100084.19;6098082;28;20507;-72
2023/05/10 00:29:22;;;;;;;6.60;3.27;;;;;;;12.20;64.29;100080.38;6098180;28;20029;-71
2023/05/10 00:32:17;;;;;;;7.07;3.93;;;;;;;12.27;64.79;100096.47;6098103;28;20040;-72
2023/05/10 00:35:13;;;;;;;10.13;3.50;;;;;;;12.23;64.51;100100.50;6097680;28;20263;-72
2023/05/10 00:38:08;;;;;;;7.35;3.40;;;;;;;12.04;65.25;100069.00;6098049;28;20040;-69
2023/05/10 00:41:03;;;;;;;5.67;3.30;;;;;;;12.13;65.28;100091.88;6098179;28;20029;-71
2023/05/10 00:43:59;;;;;;;6.97;3.60;;;;;;;12.10;65.42;100100.19;6097232;28;20032;-72
2023/05/10 00:46:56;;;;;;;6.05;3.25;;;;;;;12.00;65.64;100091.59;6097853;28;20361;-73
2023/05/10 00:49:51;;;;;;;9.90;4.75;;;;;;;12.05;66.14;100087.41;6098182;28;20494;-71
2023/05/10 00:52:47;;;;;;;10.45;3.85;;;;;;;12.00;65.94;100079.13;6098150;28;20037;-70
2023/05/10 00:55:42;;;;;;;7.63;3.80;;;;;;;11.96;66.22;100077.00;6095946;28;20464;-71
2023/05/10 00:58:38;;;;;;;7.72;3.47;;;;;;;12.04;66.33;100084.94;6098066;28;20460;-71
2023/05/10 01:01:33;;;;;;;6.18;3.20;;;;;;;11.88;66.51;100069.84;6096936;28;20095;-72
2023/05/10 01:04:28;;;;;;;5.63;3.77;;;;;;;11.86;67.21;100062.06;6097336;28;20037;-73
2023/05/10 01:07:24;;;;;;;8.50;3.77;;;;;;;11.91;67.18;100075.66;6095971;28;20039;-69
2023/05/10 01:10:19;;;;;;;6.83;3.57;;;;;;;11.82;66.93;100058.09;6097117;28;20661;-72
2023/05/10 01:13:18;;;;;;;9.10;3.40;;;;;;;11.83;67.58;100058.91;6096086;28;20028;-73
2023/05/10 01:16:14;;;;;;;5.82;3.10;;;;;;;11.91;67.32;100075.66;6095798;28;20496;-70
2023/05/10 01:19:18;;;;;;;7.63;3.67;;;;;;;11.85;67.25;100065.72;6095459;28;20063;-72
2023/05/10 01:22:32;;;;;;;9.05;3.83;;;;;;;11.90;67.46;100074.00;6097337;28;20368;-71
2023/05/10 01:25:46;;;;;;;6.70;3.38;;;;;;;11.87;67.66;100079.69;6096609;28;20109;-71
2023/05/10 01:29:02;;;;;;;10.43;3.60;;;;;;;11.86;67.79;100080.66;6108431;28;20053;-69
2023/05/10 01:32:22;;;;;;;8.73;4.05;;;;;;;11.76;67.94;100068.56;6092778;28;20117;-71
2023/05/10 01:35:25;;;;;;;6.45;3.42;;;;;;;11.75;68.48;100069.56;6090864;28;20397;-68
2023/05/10 01:38:39;;;;;;;9.63;3.80;;;;;;;11.86;68.15;100077.19;6095902;28;20079;-70
2023/05/10 01:41:53;;;;;;;8.70;4.18;;;;;;;11.83;68.07;100070.38;6095841;28;20032;-72
2023/05/10 01:44:56;;;;;;;9.30;3.65;;;;;;;11.75;68.06;100058.94;6095408;28;20044;-69
2023/05/10 01:48:01;;;;;;;6.40;3.85;;;;;;;11.77;68.62;100079.03;6095857;28;20025;-70
2023/05/10 01:50:56;;;;;;;6.97;3.72;;;;;;;11.79;68.53;100079.69;6097151;28;20075;-69
2023/05/10 01:53:58;;;;;;;7.78;3.30;;;;;;;11.68;68.71;100064.09;6095026;28;20032;-70
2023/05/10 01:57:00;;;;;;;7.90;3.58;;;;;;;11.68;69.36;100074.72;6095334;28;20108;-69
2023/05/10 01:59:56;;;;;;;7.47;3.53;;;;;;;11.57;69.32;100061.78;6095791;28;20135;-68
2023/05/10 02:02:51;;;;;;;10.05;3.40;;;;;;;11.54;69.15;100062.09;6097009;28;20039;-69
2023/05/10 02:05:48;;;;;;;6.70;3.30;;;;;;;11.62;69.80;100075.38;6095032;28;20115;-70
2023/05/10 02:08:45;;;;;;;7.78;3.78;;;;;;;11.57;69.72;100072.41;6095538;28;20078;-68
2023/05/10 02:11:42;;;;;;;8.85;3.80;;;;;;;11.49;69.98;100074.22;6096575;28;20601;-68
2023/05/10 02:14:39;;;;;;;7.25;4.22;;;;;;;11.39;70.37;100071.72;6100865;28;20031;-71
2023/05/10 02:17:37;;;;;;;6.93;3.75;;;;;;;11.35;70.66;100057.97;6100201;28;20036;-70
2023/05/10 02:20:33;;;;;;;7.72;3.55;;;;;;;11.36;70.87;100066.75;6099809;28;20029;-71
2023/05/10 02:23:29;;;;;;;6.90;3.70;;;;;;;11.22;71.19;100056.81;6099141;28;20040;-69
2023/05/10 02:26:25;;;;;;;8.00;3.97;;;;;;;11.16;71.38;100052.19;6099772;28;20028;-68
2023/05/10 02:29:23;;;;;;;7.03;3.95;;;;;;;11.23;71.71;100064.59;6100903;28;20040;-70
2023/05/10 02:32:18;;;;;;;6.53;3.45;;;;;;;11.16;71.59;100050.34;6099923;28;20107;-72
2023/05/10 02:35:15;;;;;;;7.80;3.85;;;;;;;11.14;71.95;100054.19;6099170;28;20086;-70
2023/05/10 02:38:11;;;;;;;7.50;3.65;;;;;;;11.23;71.88;100063.78;6099589;28;20048;-69
2023/05/10 02:41:08;;;;;;;8.65;4.05;;;;;;;11.18;71.94;100060.78;6101052;28;20102;-70
2023/05/10 02:44:07;;;;;;;7.22;3.92;;;;;;;11.23;72.04;100058.47;6099720;28;20064;-70
2023/05/10 02:47:03;;;;;;;7.78;3.60;;;;;;;11.15;71.62;100046.03;6100896;28;20373;-70
2023/05/10 02:49:58;;;;;;;8.73;4.00;;;;;;;11.18;71.78;100045.72;6100683;28;20033;-69
2023/05/10 02:53:01;;;;;;;12.20;4.25;;;;;;;11.26;71.25;100058.13;6100228;28;20060;-69
2023/05/10 02:55:59;;;;;;;5.95;3.53;;;;;;;11.28;71.60;100064.09;6099970;28;20024;-69
2023/05/10 02:58:55;;;;;;;6.63;3.25;;;;;;;11.23;71.56;100059.31;6099040;28;20044;-70
2023/05/10 03:01:50;;;;;;;9.63;3.75;;;;;;;11.14;71.64;100049.66;6100735;28;20050;-69
2023/05/10 03:04:45;;;;;;;5.90;3.40;;;;;;;11.14;71.89;100048.88;6099320;28;20059;-70
2023/05/10 03:07:41;;;;;;;6.90;3.78;;;;;;;11.12;72.22;100056.16;6100432;28;20025;-71
2023/05/10 03:10:41;;;;;;;8.47;3.23;;;;;;;11.15;72.00;100059.31;6099913;28;20041;-69
2023/05/10 03:13:59;;;;;;;7.30;3.38;;;;;;;11.13;72.33;100061.31;6098103;28;20272;-71
2023/05/10 03:17:00;;;;;;;7.97;3.72;;;;;;;11.10;72.63;100063.44;6098872;28;20041;-70
2023/05/10 03:19:57;;;;;;;6.45;3.35;;;;;;;11.00;72.87;100053.00;6099214;28;20060;-70
2023/05/10 03:23:01;;;;;;;6.55;3.40;;;;;;;11.00;73.22;100052.19;6099487;28;20115;-72
2023/05/10 03:25:57;;;;;;;7.47;3.47;;;;;;;11.03;73.03;100057.16;6097504;28;20108;-70
2023/05/10 03:28:52;;;;;;;6.22;4.00;;;;;;;11.01;73.61;100067.91;6098671;28;20029;-69
2023/05/10 03:31:47;;;;;;;5.95;3.50;;;;;;;10.94;73.93;100058.97;6103369;28;20028;-71
2023/05/10 03:34:43;;;;;;;7.47;3.77;;;;;;;10.90;73.77;100038.25;6108788;28;20448;-72
2023/05/10 03:37:39;;;;;;;7.32;3.72;;;;;;;10.97;73.69;100052.50;6099804;28;20021;-70
2023/05/10 03:40:34;;;;;;;6.55;3.45;;;;;;;10.96;73.75;100049.00;6099302;28;20123;-71
2023/05/10 03:43:29;;;;;;;8.63;3.40;;;;;;;11.07;73.49;100061.13;6097341;28;20028;-69
2023/05/10 03:46:24;;;;;;;10.97;3.73;;;;;;;11.10;73.07;100042.22;6099408;28;20312;-72
2023/05/10 03:49:20;;;;;;;7.60;3.53;;;;;;;11.02;73.27;100045.72;6099668;28;20037;-70
2023/05/10 03:52:15;;;;;;;6.67;3.60;;;;;;;11.05;73.58;100049.84;6099614;28;20363;-72
2023/05/10 03:55:10;;;;;;;5.40;3.23;;;;;;;11.12;73.50;100064.09;6098352;28;20029;-72
2023/05/10 03:58:06;;;;;;;6.80;3.45;;;;;;;11.17;73.44;100059.16;6100066;28;20263;-72
2023/05/10 04:01:01;;;;;;;5.83;3.37;;;;;;;11.17;73.37;100049.34;6110947;28;20036;-69
2023/05/10 04:03:56;;;;;;;4.90;3.33;;;;;;;11.15;73.37;100053.16;6099619;28;20094;-70
2023/05/10 04:06:52;;;;;;;8.50;4.10;;;;;;;11.03;73.45;100031.47;6098592;28;20698;-71
2023/05/10 04:09:47;;;;;;;10.80;3.90;;;;;;;11.10;73.35;100047.53;6097454;28;20024;-72
2023/05/10 04:12:42;;;;;;;7.47;3.90;;;;;;;11.16;72.92;100062.78;6098709;28;20048;-72
2023/05/10 04:15:37;;;;;;;9.20;4.00;;;;;;;11.09;73.22;100037.91;6097994;28;20105;-69
2023/05/10 04:18:33;;;;;;;5.97;3.58;;;;;;;11.12;73.08;100042.88;6098818;28;20479;-71
2023/05/10 04:21:28;;;;;;;10.10;4.40;;;;;;;11.20;73.27;100058.78;6098868;28;20024;-70
2023/05/10 04:24:24;;;;;;;8.45;3.63;;;;;;;11.11;73.57;100054.50;6097785;28;20371;-72
2023/05/10 04:27:19;;;;;;;9.10;3.83;;;;;;;11.03;74.33;100050.03;6098663;28;20029;-72
2023/05/10 04:30:14;;;;;;;7.33;4.20;;;;;;;11.02;74.78;100047.53;6098341;28;20040;-70
2023/05/10 04:33:10;;;;;;;6.50;3.90;;;;;;;11.05;75.34;100063.13;6098436;28;20029;-70
2023/05/10 04:36:05;;;;;;;11.83;3.50;;;;;;;11.03;76.07;100057.16;6096920;28;20100;-71
2023/05/10 04:39:02;;;;;;;6.32;3.65;;;;;;;10.94;75.79;100047.53;6098482;28;20066;-71
2023/05/10 04:41:58;;;;;;;7.38;4.05;;;;;;;10.96;76.37;100050.81;6098118;28;20433;-70
2023/05/10 04:44:53;;;;;;;7.90;3.90;;;;;;;11.04;76.95;100072.91;6097467;28;20025;-71
2023/05/10 04:47:48;;;;;;;6.97;3.93;;;;;;;11.00;77.57;100068.09;6098210;28;20654;-72
2023/05/10 04:50:43;;;;;;;7.20;3.90;;;;;;;11.02;78.74;100071.41;6098220;28;20037;-70
2023/05/10 04:53:39;;;;;;;9.40;4.20;;;;;;;10.83;79.85;100071.72;6096950;28;20074;-70
2023/05/10 04:56:34;;;;;;;7.80;4.17;;;;;;;10.75;81.17;100069.88;6098114;28;20474;-73
2023/05/10 04:59:29;;;;;;;7.17;4.27;;;;;;;10.82;82.78;100091.28;6097682;28;20272;-69
2023/05/10 05:02:25;;;;;;;8.80;4.20;;;;;;;10.68;83.94;100075.00;6097714;28;20509;-71
2023/05/10 05:05:20;;;;;;;7.97;4.77;;;;;;;10.61;85.26;100078.47;6097141;28;20029;-69
2023/05/10 05:08:15;;;;;;;9.93;4.80;;;;;;;10.58;85.90;100089.38;6097662;28;20098;-73
2023/05/10 05:11:10;;;;;;;8.97;5.17;;;;;;;10.59;87.02;100099.00;6097633;28;20084;-71
2023/05/10 05:14:06;;;;;;;10.93;4.83;;;;;;;10.56;89.05;100097.50;6096018;28;20025;-68
2023/05/10 05:17:01;;;;;;;10.70;4.77;;;;;;;10.65;90.29;100099.19;6097400;28;20418;-70
2023/05/10 05:19:56;;;;;;;9.47;5.10;;;;;;;10.47;90.00;100093.16;6099739;28;20260;-72
2023/05/10 05:22:52;;;;;;;11.00;5.20;;;;;;;10.54;91.13;100110.09;6097612;28;20025;-69
2023/05/10 05:25:47;;;;;;;9.00;5.03;;;;;;;10.51;92.78;100102.47;6096134;28;20036;-71
2023/05/10 05:28:42;;;;;;;9.50;5.27;;;;;;;10.45;94.01;100105.75;6097483;28;20029;-72
2023/05/10 05:31:38;;;;;;;10.38;5.22;;;;;;;10.42;93.94;100105.22;6097592;28;20037;-71
2023/05/10 05:34:33;;;;;;;10.57;5.77;;;;;;;10.50;94.42;100119.34;6096253;28;20033;-71
2023/05/10 05:37:28;;;;;;;14.23;5.70;;;;;;;10.37;94.98;100103.06;6097090;28;20476;-70
2023/05/10 05:40:24;;;;;;;10.68;5.07;;;;;;;10.45;94.44;100110.22;6097478;28;20048;-71
2023/05/10 05:43:19;;;;;;;11.57;5.90;;;;;;;10.38;93.65;100111.84;6096119;28;20041;-69
2023/05/10 05:46:14;;;;;;;15.60;6.25;;;;;;;10.55;94.86;100117.03;6099247;28;20029;-71
2023/05/10 05:49:10;;;;;;;10.10;5.83;;;;;;;10.60;94.92;100130.66;6101893;28;20079;-72
2023/05/10 05:52:05;;;;;;;10.50;5.67;;;;;;;10.47;94.14;100124.13;6102058;28;20036;-70
2023/05/10 05:55:00;;;;;;;11.33;5.70;;;;;;;10.52;94.66;100127.97;6100777;28;20075;-71
2023/05/10 05:57:56;;;;;;;13.80;5.90;;;;;;;10.44;94.89;100111.19;6101711;28;20267;-70
2023/05/10 06:00:51;;;;;;;11.10;6.57;;;;;;;10.48;95.05;100121.34;6101014;28;20041;-68
2023/05/10 06:03:47;;;;;;;14.15;7.32;;;;;;;10.46;96.17;100120.66;6101058;28;20082;-68
2023/05/10 06:06:42;;;;;;;13.23;6.57;;;;;;;10.56;95.02;100129.31;6101926;28;20426;-70
2023/05/10 06:09:38;;;;;;;14.98;6.07;;;;;;;10.57;95.21;100120.38;6101525;28;20031;-72
2023/05/10 06:12:33;;;;;;;12.23;6.20;;;;;;;10.74;95.63;100135.34;6101574;28;20029;-69
2023/05/10 06:15:28;;;;;;;11.77;5.50;;;;;;;10.86;96.77;100132.38;6100322;28;20035;-70
2023/05/10 06:18:24;;;;;;;13.77;6.60;;;;;;;11.01;97.04;100144.84;6099875;28;20290;-70
2023/05/10 06:21:19;;;;;;;17.00;6.60;;;;;;;11.06;96.15;100152.34;6101441;28;20112;-69
2023/05/10 06:24:15;;;;;;;14.97;6.80;;;;;;;10.93;96.40;100136.03;6096553;28;20036;-68
2023/05/10 06:27:10;;;;;;;12.60;6.47;;;;;;;11.05;97.47;100162.13;6101538;28;20025;-70
2023/05/10 06:30:06;;;;;;;12.20;5.93;;;;;;;11.01;97.42;100159.94;6111041;28;20113;-67
2023/05/10 06:33:01;;;;;;;14.07;6.65;;;;;;;10.74;98.68;100153.91;6110415;28;20644;-68
2023/05/10 06:35:57;;;;;;;13.40;6.93;;;;;;;10.68;100.00;100178.41;6100649;28;20033;-70
2023/05/10 06:38:52;;;;;;;16.65;8.23;;;;;;;10.49;100.00;100165.41;6101077;28;20263;-70
2023/05/10 06:41:47;;;;;;;15.93;7.45;;;;;;;10.40;100.00;100157.59;6100449;28;20029;-69
2023/05/10 06:44:43;;;;;;;15.07;8.30;;;;;;;10.48;100.00;100171.72;6099608;28;20037;-69
2023/05/10 06:47:38;;;;;;;25.58;8.18;;;;;;;10.50;100.00;100171.53;6100580;28;20419;-69
2023/05/10 06:50:34;;;;;;;17.52;8.25;;;;;;;10.54;100.00;100159.63;6100601;28;20037;-70
2023/05/10 06:53:29;;;;;;;12.87;7.63;;;;;;;10.54;100.00;100165.78;6099917;28;20029;-68
2023/05/10 06:56:24;;;;;;;16.55;7.65;;;;;;;10.61;100.00;100165.94;6099512;28;20371;-69
2023/05/10 06:59:21;;;;;;;16.60;8.30;;;;;;;10.77;100.00;100168.66;6098677;28;20550;-69
2023/05/10 07:02:16;;;;;;;17.58;8.63;;;;;;;10.75;100.00;100173.31;6099214;28;20148;-67
2023/05/10 07:05:12;;;;;;;17.13;8.55;;;;;;;10.64;100.00;100161.16;6099034;28;20025;-68
2023/05/10 07:08:08;;;;;;;14.93;8.07;;;;;;;10.67;100.00;100174.13;6099549;28;20036;-68
2023/05/10 07:11:04;;;;;;;18.48;9.07;;;;;;;10.79;100.00;100187.09;6098959;28;20036;-68
2023/05/10 07:13:59;;;;;;;16.45;8.60;;;;;;;10.87;100.00;100182.63;6098620;28;20468;-68
2023/05/10 07:16:55;;;;;;;17.77;8.33;;;;;;;11.02;100.00;100198.75;6098602;28;20047;-69
2023/05/10 07:19:50;;;;;;;16.57;7.83;;;;;;;11.17;100.00;100183.88;6098365;28;20028;-68
2023/05/10 07:22:45;;;;;;;20.43;8.30;;;;;;;11.23;100.00;100191.16;6098590;28;20650;-68
2023/05/10 07:25:41;;;;;;;19.63;9.43;;;;;;;11.48;100.00;100195.53;6098542;28;20534;-69
2023/05/10 07:28:37;;;;;;;20.92;8.60;;;;;;;11.55;100.00;100175.28;6098819;28;20040;-70
2023/05/10 07:31:32;;;;;;;26.08;11.10;;;;;;;11.49;100.00;100160.03;6098885;28;20136;-69
2023/05/10 07:34:29;;;;;;;24.93;9.27;;;;;;;11.78;100.00;100191.41;6098336;28;20361;-69
2023/05/10 07:37:25;;;;;;;19.98;8.35;;;;;;;11.83;100.00;100189.94;6099186;28;20267;-70
2023/05/10 07:40:20;;;;;;;17.60;7.70;;;;;;;11.88;100.00;100182.28;6098893;28;20044;-70
2023/05/10 07:43:15;;;;;;;13.93;7.60;;;;;;;11.94;100.00;100188.75;6097233;28;20094;-68
2023/05/10 07:46:11;;;;;;;15.17;7.03;;;;;;;12.15;100.00;100198.88;6097996;28;20345;-70
2023/05/10 07:49:06;;;;;;;13.10;6.57;;;;;;;12.40;100.00;100197.81;6099177;28;20055;-67
2023/05/10 07:52:03;;;;;;;11.77;6.07;;;;;;;12.52;100.00;100199.13;6098430;28;20037;-70
2023/05/10 07:54:59;;;;;;;12.73;6.55;;;;;;;12.42;100.00;100190.47;6098094;28;20414;-69
2023/05/10 07:57:55;;;;;;;11.75;6.60;;;;;;;12.42;100.00;100191.31;6098615;28;20068;-68
2023/05/10 08:00:50;;;;;;;10.63;7.07;;;;;;;12.60;100.00;100215.03;6098545;28;20044;-68
2023/05/10 08:03:45;;;;;;;13.15;6.65;;;;;;;12.56;100.00;100211.06;6097538;28;20619;-69
2023/05/10 08:06:41;;;;;;;14.07;7.05;;;;;;;12.69;100.00;100206.00;6097957;28;20029;-68
2023/05/10 08:09:36;;;;;;;11.93;6.33;;;;;;;12.87;100.00;100217.28;6098354;28;20029;-68
2023/05/10 08:12:31;;;;;;;10.80;6.07;;;;;;;13.13;100.00;100217.84;6098478;28;20259;-70
2023/05/10 08:15:27;;;;;;;13.07;6.60;;;;;;;13.23;100.00;100222.94;6097595;28;20036;-68
2023/05/10 08:18:22;;;;;;;10.23;5.47;;;;;;;13.34;100.00;100213.72;6097967;28;20029;-70
2023/05/10 08:21:17;;;;;;;9.67;5.20;;;;;;;13.62;100.00;100229.00;6096322;28;20032;-68
2023/05/10 08:24:13;;;;;;;8.50;5.15;;;;;;;13.71;100.00;100227.13;6096743;28;20082;-67
2023/05/10 08:27:08;;;;;;;7.57;4.10;;;;;;;13.73;100.00;100219.75;6098172;28;20028;-69
2023/05/10 08:30:04;;;;;;;6.90;4.32;;;;;;;13.76;100.00;100235.41;6097649;28;20017;-70
2023/05/10 08:32:59;;;;;;;9.27;5.22;;;;;;;13.81;100.00;100238.34;6097769;28;20117;-69
2023/05/10 08:35:54;;;;;;;8.93;5.07;;;;;;;13.65;100.00;100238.47;6096997;28;20074;-69
2023/05/10 08:38:51;;;;;;;8.03;4.20;;;;;;;13.48;100.00;100237.75;6097256;28;20817;-69
2023/05/10 08:41:46;;;;;;;7.70;4.05;;;;;;;13.52;100.00;100248.91;6097931;28;20399;-68
2023/05/10 08:44:42;;;;;;;7.43;3.83;;;;;;;13.52;100.00;100243.56;6096700;28;20024;-69
2023/05/10 08:47:37;;;;;;;9.18;4.00;;;;;;;13.62;100.00;100260.97;6097302;28;20116;-68
2023/05/10 08:50:35;;;;;;;6.93;3.97;;;;;;;13.66;100.00;100256.97;6096095;28;20032;-68
2023/05/10 08:53:33;;;;;;;7.00;3.75;;;;;;;13.48;100.00;100252.94;6097004;28;20036;-69
2023/05/10 08:56:28;;;;;;;6.40;3.58;;;;;;;13.30;100.00;100249.69;6095849;28;20049;-70
2023/05/10 08:59:23;;;;;;;8.00;3.40;;;;;;;13.27;100.00;100252.69;6104913;28;20025;-67
2023/05/10 09:02:20;;;;;;;12.05;3.90;;;;;;;13.21;100.00;100266.75;6103771;28;20275;-69
2023/05/10 09:05:16;;;;;;;5.88;3.38;;;;;;;13.24;100.00;100277.84;6094785;28;20083;-69
2023/05/10 09:08:12;;;;;;;5.82;3.40;;;;;;;13.26;100.00;100288.34;6097211;28;20361;-68
2023/05/10 09:11:09;;;;;;;5.10;2.78;;;;;;;13.26;100.00;100293.66;6096671;28;20161;-69
2023/05/10 09:14:04;;;;;;;5.57;3.03;;;;;;;13.18;100.00;100293.72;6096434;28;20112;-68
2023/05/10 09:16:59;;;;;;;6.10;2.93;;;;;;;13.19;100.00;100295.34;6097135;28;20421;-70
2023/05/10 09:20:02;;;;;;;4.73;2.70;;;;;;;13.17;100.00;100302.69;6096252;28;20271;-69
2023/05/10 09:22:58;;;;;;;5.75;2.80;;;;;;;13.07;100.00;100302.91;6097071;28;20021;-70
2023/05/10 09:26:04;;;;;;;5.20;2.90;;;;;;;13.11;100.00;100305.03;6095958;28;20460;-72
2023/05/10 09:29:00;;;;;;;4.55;2.45;;;;;;;13.26;100.00;100322.97;6096692;28;20025;-71
2023/05/10 09:31:55;;;;;;;5.95;3.03;;;;;;;13.23;100.00;100317.97;6096054;28;20540;-70
2023/05/10 09:34:50;;;;;;;5.00;2.90;;;;;;;13.40;100.00;100314.25;6096083;28;20067;-69
2023/05/10 09:37:48;;;;;;;4.22;2.33;;;;;;;13.48;100.00;100327.53;6096841;28;20040;-70
2023/05/10 09:40:54;;;;;;;3.90;2.17;;;;;;;13.31;100.00;100320.59;6096304;28;20119;-67
2023/05/10 09:43:49;;;;;;;4.55;2.97;;;;;;;13.49;100.00;100339.81;6095906;28;20024;-71
2023/05/10 09:46:49;;;;;;;4.85;2.58;;;;;;;13.52;100.00;100339.47;6096308;28;20044;-71
2023/05/10 09:49:51;;;;;;;3.92;2.47;;;;;;;13.51;100.00;100333.31;6096475;28;20033;-69
2023/05/10 09:52:54;;;;;;;3.72;2.13;;;;;;;13.44;100.00;100342.19;6095288;28;20040;-72
2023/05/10 09:55:50;;;;;;;5.47;2.38;;;;;;;13.45;100.00;100343.84;6096373;28;20075;-67
2023/05/10 09:58:46;;;;;;;3.72;2.13;;;;;;;13.32;100.00;100346.22;6096858;28;20029;-71
2023/05/10 10:01:41;;;;;;;3.67;1.80;;;;;;;13.30;100.00;100357.06;6093575;28;20028;-71
2023/05/10 10:04:39;;;;;;;3.50;1.90;;;;;;;13.36;100.00;100351.03;6091815;28;20020;-70
2023/05/10 10:07:35;;;;;;;4.28;1.73;;;;;;;13.36;100.00;100360.84;6096231;28;20044;-71
2023/05/10 10:10:32;;;;;;;3.13;1.65;;;;;;;13.20;100.00;100361.75;6097950;28;20025;-68
2023/05/10 10:13:27;;;;;;;2.75;1.85;;;;;;;13.24;100.00;100362.22;6097476;28;20029;-68
2023/05/10 10:16:22;;;;;;;2.55;1.50;;;;;;;13.28;100.00;100368.88;6095871;28;20116;-70
2023/05/10 10:19:19;;;;;;;2.45;1.33;;;;;;;13.37;100.00;100375.84;6098574;28;20532;-69
2023/05/10 10:22:14;;;;;;;2.42;1.27;;;;;;;13.27;100.00;100369.88;6096175;28;20078;-70
2023/05/10 10:25:13;;;;;;;3.80;1.80;;;;;;;13.21;100.00;100378.56;6095606;28;20419;-71
2023/05/10 10:28:27;;;;;;;3.72;2.13;;;;;;;13.18;100.00;100368.25;6096118;28;20268;-70
2023/05/10 10:31:25;;;;;;;10.07;4.50;;;;;;;13.42;100.00;100386.81;6095111;28;20037;-71
2023/05/10 10:34:28;;;;;;;3.20;1.60;;;;;;;13.38;100.00;100365.00;6098867;28;20144;-70
2023/05/10 10:37:41;;;;;;;2.85;1.77;;;;;;;13.45;100.00;100381.94;6099502;28;20044;-71
2023/05/10 10:40:36;;;;;;;3.70;1.90;;;;;;;13.44;100.00;100379.47;6100639;28;20037;-69
2023/05/10 10:43:31;;;;;;;3.90;2.13;;;;;;;13.45;100.00;100383.81;6104618;28;20036;-68
2023/05/10 10:46:26;;;;;;;2.90;1.70;;;;;;;13.39;100.00;100395.16;6100689;28;20279;-70
2023/05/10 10:49:22;;;;;;;4.47;2.00;;;;;;;13.50;100.00;100394.78;6099390;28;20040;-69
2023/05/10 10:52:33;;;;;;;3.40;1.90;;;;;;;13.68;100.00;100395.34;6100089;28;20041;-68
2023/05/10 10:55:30;;;;;;;4.80;2.22;;;;;;;13.75;100.00;100385.66;6099666;28;20058;-71
2023/05/10 10:58:32;;;;;;;5.30;2.45;;;;;;;13.74;100.00;100397.31;6099227;28;20045;-68
2023/05/10 11:01:32;;;;;;;11.73;5.25;;;;;;;14.07;100.00;100405.97;6099933;28;20033;-68
2023/05/10 11:04:28;;;;;;;3.40;2.00;;;;;;;14.25;100.00;100395.84;6095768;28;20516;-72
2023/05/10 11:07:24;;;;;;;4.73;2.27;;;;;;;14.40;100.00;100387.94;6103452;28;20048;-69
2023/05/10 11:10:21;;;;;;;4.53;1.92;;;;;;;14.55;100.00;100391.47;6098339;28;20449;-68
2023/05/10 11:13:16;;;;;;;3.47;2.05;;;;;;;14.73;100.00;100390.16;6099519;28;20037;-70
2023/05/10 11:16:25;;;;;;;2.90;1.87;;;;;;;15.07;100.00;100397.69;6097411;28;20041;-70
2023/05/10 11:19:20;;;;;;;2.83;1.63;;;;;;;15.28;100.00;100400.44;6097780;28;20032;-70
2023/05/10 11:22:16;;;;;;;3.47;1.67;;;;;;;15.59;100.00;100388.75;6099360;28;20460;-71
2023/05/10 11:25:12;;;;;;;4.63;1.92;;;;;;;15.78;100.00;100386.34;6099098;28;20318;-70
2023/05/10 11:28:08;;;;;;;3.90;1.30;;;;;;;15.88;100.00;100399.41;6112846;28;20029;-69
2023/05/10 11:31:03;;;;;;;3.23;1.43;;;;;;;16.02;98.38;100393.19;6100806;28;20033;-70
2023/05/10 11:34:01;;;;;;;2.57;1.53;;;;;;;16.21;94.84;100397.94;6096074;28;20032;-70
2023/05/10 11:36:57;;;;;;;2.70;1.50;;;;;;;16.38;95.88;100402.03;6099032;28;20267;-70
2023/05/10 11:39:54;;;;;;;3.67;1.85;;;;;;;16.58;95.07;100405.72;6099177;28;20036;-70
2023/05/10 11:42:50;;;;;;;2.33;1.23;;;;;;;16.53;91.58;100412.69;6097867;28;20021;-71
2023/05/10 11:45:45;;;;;;;4.30;2.20;;;;;;;16.55;93.36;100424.06;6096432;28;20025;-69
2023/05/10 11:48:41;;;;;;;2.57;1.77;;;;;;;16.63;92.62;100416.69;6098250;28;20044;-72
2023/05/10 11:51:37;;;;;;;4.95;1.67;;;;;;;16.74;90.45;100407.31;6098318;28;20047;-71
2023/05/10 11:54:34;;;;;;;4.57;1.70;;;;;;;16.96;90.32;100413.47;6098272;28;20025;-73
2023/05/10 11:57:31;;;;;;;3.42;1.65;;;;;;;17.02;88.94;100407.31;6097656;28;20033;-70
2023/05/10 12:00:26;;;;;;;3.70;1.60;;;;;;;16.79;87.90;100422.81;6097553;28;20051;-72
2023/05/10 12:03:21;;;;;;;2.73;1.60;;;;;;;16.91;88.26;100407.84;6097819;28;20056;-72
2023/05/10 12:06:18;;;;;;;6.20;1.97;;;;;;;17.25;84.46;100424.81;6096766;28;20401;-71
2023/05/10 12:09:14;;;;;;;4.03;1.85;;;;;;;17.52;84.19;100420.44;6096972;28;20263;-71
2023/05/10 12:12:09;;;;;;;3.58;1.65;;;;;;;17.42;83.45;100424.50;6097267;28;20131;-72
2023/05/10 12:15:06;;;;;;;3.40;1.60;;;;;;;17.40;82.91;100416.66;6096082;28;20405;-72
2023/05/10 12:18:02;;;;;;;6.50;1.83;;;;;;;17.21;84.54;100417.34;6096496;28;20036;-73
2023/05/10 12:21:03;;;;;;;3.83;1.70;;;;;;;17.30;80.86;100426.91;6097721;28;20025;-71
2023/05/10 12:24:03;;;;;;;3.05;1.50;;;;;;;17.99;76.08;100424.19;6097035;28;20372;-70
2023/05/10 12:26:58;;;;;;;4.45;1.80;;;;;;;18.16;78.45;100422.78;6097074;28;20025;-72
2023/05/10 12:29:54;;;;;;;1.77;1.13;;;;;;;17.82;79.26;100432.59;6097512;28;20112;-70
2023/05/10 12:32:50;;;;;;;2.92;1.40;;;;;;;17.68;80.21;100440.78;6097328;28;20017;-72
2023/05/10 12:35:53;;;;;;;2.63;1.20;;;;;;;18.15;74.39;100426.53;6096666;28;20100;-70
2023/05/10 12:38:48;;;;;;;3.13;1.30;;;;;;;18.26;75.52;100434.00;6097931;28;20429;-71
2023/05/10 12:41:43;;;;;;;2.70;1.27;;;;;;;18.56;76.12;100429.13;6097124;28;20028;-74
2023/05/10 12:44:39;;;;;;;3.90;1.73;;;;;;;18.07;75.88;100429.38;6096685;28;20070;-71
2023/05/10 12:47:34;;;;;;;3.72;1.63;;;;;;;18.04;75.04;100427.94;6097059;28;20392;-71
2023/05/10 12:50:30;;;;;;;4.97;1.42;;;;;;;18.16;77.63;100430.84;6097198;28;20573;-69
2023/05/10 12:53:25;;;;;;;4.37;1.63;;;;;;;18.26;76.24;100450.09;6096513;28;20030;-74
2023/05/10 12:56:21;;;;;;;3.90;1.80;;;;;;;18.27;73.07;100447.19;6096156;28;20672;-72
2023/05/10 12:59:16;;;;;;;3.92;1.90;;;;;;;18.97;71.18;100453.94;6097165;28;20045;-73
2023/05/10 13:02:11;;;;;;;2.73;1.63;;;;;;;18.51;73.44;100456.56;6096816;28;20375;-73
2023/05/10 13:05:07;;;;;;;3.72;1.80;;;;;;;18.89;71.19;100446.91;6095982;28;20362;-72
2023/05/10 13:08:02;;;;;;;3.25;1.40;;;;;;;19.10;69.81;100461.19;6096704;28;20029;-71
2023/05/10 13:10:57;;;;;;;3.97;1.90;;;;;;;17.90;72.31;100454.91;6095650;28;20055;-70
2023/05/10 13:13:52;;;;;;;2.77;1.70;;;;;;;17.42;75.19;100473.56;6096294;28;20029;-72
2023/05/10 13:16:49;;;;;;;5.60;2.05;;;;;;;17.74;75.91;100459.59;6095850;28;20383;-69
2023/05/10 13:19:44;;;;;;;4.20;2.00;;;;;;;17.95;74.12;100466.69;6097028;28;20041;-72
2023/05/10 13:22:41;;;;;;;2.78;1.60;;;;;;;18.57;72.46;100436.97;6096845;28;20031;-71
2023/05/10 13:25:36;;;;;;;3.45;1.52;;;;;;;18.82;72.04;100440.72;6094533;28;20087;-72
2023/05/10 13:28:31;;;;;;;3.00;1.70;;;;;;;18.80;70.11;100458.91;6095802;28;20036;-74
2023/05/10 13:31:26;;;;;;;3.60;1.60;;;;;;;18.68;69.44;100444.41;6095521;28;20267;-73
2023/05/10 13:34:22;;;;;;;4.37;1.90;;;;;;;17.59;73.65;100450.00;6103714;28;20093;-69